createdAt,value
2019-01-04T00:00:15.241Z,1018.1
2019-01-04T00:03:15.892Z,1018.1
2019-01-04T00:06:15.502Z,1018.1
2019-01-04T00:09:15.257Z,1018.1
2019-01-04T00:12:15.994Z,1018.1
2019-01-04T00:15:15.867Z,1018.0
2019-01-04T00:18:15.772Z,1018.1
2019-01-04T00:21:15.676Z,1018.0
2019-01-04T00:24:15.358Z,1018.1
2019-01-04T00:27:15.560Z,1018.1
2019-01-04T00:30:15.209Z,1018.1
2019-01-04T00:33:15.354Z,1018.0
2019-01-04T00:36:15.567Z,1018.0
2019-01-04T00:39:16.126Z,1017.9
2019-01-04T00:42:15.276Z,1017.9
2019-01-04T00:45:15.426Z,1017.9
2019-01-04T00:48:15.313Z,1017.8
2019-01-04T00:51:15.135Z,1017.9
2019-01-04T00:54:15.176Z,1017.9
2019-01-04T00:57:15.147Z,1017.8
2019-01-04T01:00:15.076Z,1017.9
2019-01-04T01:03:15.908Z,1018.0
2019-01-04T01:06:15.769Z,1017.9
2019-01-04T01:09:14.933Z,1017.8
2019-01-04T01:12:15.901Z,1017.8
2019-01-04T01:15:15.843Z,1017.7
2019-01-04T01:18:15.291Z,1017.7
2019-01-04T01:21:15.010Z,1017.7
2019-01-04T01:24:15.179Z,1017.7
2019-01-04T01:27:15.834Z,1017.7
2019-01-04T01:30:15.087Z,1017.7
2019-01-04T01:33:15.425Z,1017.7
2019-01-04T01:36:15.073Z,1017.7
2019-01-04T01:39:15.255Z,1017.7
2019-01-04T01:42:14.926Z,1017.7
2019-01-04T01:45:15.230Z,1017.7
2019-01-04T01:48:15.238Z,1017.8
2019-01-04T01:51:15.239Z,1017.8
2019-01-04T01:54:15.618Z,1017.8
2019-01-04T01:57:15.945Z,1017.9
2019-01-04T02:00:15.805Z,1017.9
2019-01-04T02:03:15.782Z,1018.0
2019-01-04T02:06:15.599Z,1018.0
2019-01-04T02:09:15.595Z,1018.1
2019-01-04T02:12:15.408Z,1018.1
2019-01-04T02:15:15.094Z,1018.1
2019-01-04T02:18:15.779Z,1018.1
2019-01-04T02:21:15.665Z,1018.1
2019-01-04T02:24:15.286Z,1018.1
2019-01-04T02:27:16.040Z,1018.1
2019-01-04T02:30:15.666Z,1018.0
2019-01-04T02:33:15.461Z,1018.0
2019-01-04T02:36:15.155Z,1017.9
2019-01-04T02:39:15.823Z,1017.9
2019-01-04T02:42:15.391Z,1017.8
2019-01-04T02:45:15.043Z,1017.9
2019-01-04T02:48:15.767Z,1017.8
2019-01-04T02:51:15.396Z,1017.8
2019-01-04T02:54:15.046Z,1017.7
2019-01-04T02:57:15.749Z,1017.8
2019-01-04T03:00:15.551Z,1017.8
2019-01-04T03:03:15.536Z,1017.8
2019-01-04T03:06:15.301Z,1017.8
2019-01-04T03:09:15.293Z,1017.8
2019-01-04T03:12:15.088Z,1017.9
2019-01-04T03:15:15.705Z,1017.9
2019-01-04T03:18:15.385Z,1017.9
2019-01-04T03:21:15.070Z,1017.8
2019-01-04T03:24:15.798Z,1017.7
2019-01-04T03:27:15.475Z,1017.7
2019-01-04T03:30:15.186Z,1017.7
2019-01-04T03:33:15.098Z,1017.6
2019-01-04T03:36:15.907Z,1017.6
2019-01-04T03:39:15.671Z,1017.7
2019-01-04T03:42:15.450Z,1017.7
2019-01-04T03:45:15.339Z,1017.6
2019-01-04T03:48:15.053Z,1017.6
2019-01-04T03:51:15.705Z,1017.6
2019-01-04T03:54:15.339Z,1017.6
2019-01-04T03:57:15.192Z,1017.6
2019-01-04T04:00:15.121Z,1017.6
2019-01-04T04:03:15.891Z,1017.6
2019-01-04T04:06:15.664Z,1017.5
2019-01-04T04:09:15.373Z,1017.6
2019-01-04T04:12:15.154Z,1017.4
2019-01-04T04:15:15.862Z,1017.5
2019-01-04T04:18:15.679Z,1017.4
2019-01-04T04:21:15.336Z,1017.4
2019-01-04T04:24:15.131Z,1017.4
2019-01-04T04:27:15.902Z,1017.4
2019-01-04T04:30:15.741Z,1017.4
2019-01-04T04:33:15.509Z,1017.4
2019-01-04T04:36:15.373Z,1017.5
2019-01-04T04:39:15.192Z,1017.6
2019-01-04T04:42:15.817Z,1017.6
2019-01-04T04:45:15.613Z,1017.7
2019-01-04T04:48:15.512Z,1017.6
2019-01-04T04:51:15.293Z,1017.6
2019-01-04T04:54:15.898Z,1017.6
2019-01-04T04:57:15.538Z,1017.5
2019-01-04T05:00:15.153Z,1017.5
2019-01-04T05:03:15.808Z,1017.5
2019-01-04T05:06:15.467Z,1017.6
2019-01-04T05:09:15.229Z,1017.5
2019-01-04T05:12:14.999Z,1017.5
2019-01-04T05:15:15.777Z,1017.5
2019-01-04T05:18:15.650Z,1017.5
2019-01-04T05:21:15.315Z,1017.5
2019-01-04T05:24:15.042Z,1017.5
2019-01-04T05:27:15.045Z,1017.5
2019-01-04T05:30:15.643Z,1017.5
2019-01-04T05:33:15.421Z,1017.4
2019-01-04T05:36:15.181Z,1017.4
2019-01-04T05:39:15.850Z,1017.4
2019-01-04T05:42:15.658Z,1017.2
2019-01-04T05:45:15.448Z,1017.3
2019-01-04T05:48:15.173Z,1017.2
2019-01-04T05:51:15.044Z,1017.2
2019-01-04T05:54:15.196Z,1017.3
2019-01-04T05:57:15.335Z,1017.2
2019-01-04T06:00:15.603Z,1017.2
2019-01-04T06:03:15.722Z,1017.3
2019-01-04T06:06:15.410Z,1017.2
2019-01-04T06:09:15.325Z,1017.3
2019-01-04T06:12:15.296Z,1017.3
2019-01-04T06:15:15.208Z,1017.4
2019-01-04T06:18:15.104Z,1017.4
2019-01-04T06:21:15.130Z,1017.4
2019-01-04T06:24:14.977Z,1017.3
2019-01-04T06:27:15.774Z,1017.3
2019-01-04T06:30:15.877Z,1017.3
2019-01-04T06:33:15.593Z,1017.4
2019-01-04T06:36:15.456Z,1017.4
2019-01-04T06:39:15.448Z,1017.4
2019-01-04T06:42:15.345Z,1017.4
2019-01-04T06:45:15.295Z,1017.4
2019-01-04T06:48:15.125Z,1017.4
2019-01-04T06:51:15.174Z,1017.4
2019-01-04T06:54:16.094Z,1017.4
2019-01-04T06:57:15.103Z,1017.4
2019-01-04T07:00:15.033Z,1017.4
2019-01-04T07:03:15.719Z,1017.6
2019-01-04T07:06:15.610Z,1017.6
2019-01-04T07:09:15.393Z,1017.6
2019-01-04T07:12:15.126Z,1017.6
2019-01-04T07:15:15.084Z,1017.6
2019-01-04T07:18:14.978Z,1017.6
2019-01-04T07:21:15.787Z,1017.6
2019-01-04T07:24:15.549Z,1017.6
2019-01-04T07:27:15.217Z,1017.6
2019-01-04T07:30:16.126Z,1017.6
2019-01-04T07:33:15.056Z,1017.5
2019-01-04T07:36:16.950Z,1017.5
2019-01-04T07:39:15.799Z,1017.5
2019-01-04T07:42:15.711Z,1017.6
2019-01-04T07:45:15.604Z,1017.7
2019-01-04T07:48:15.435Z,1017.7
2019-01-04T07:51:15.235Z,1017.6
2019-01-04T07:54:16.073Z,1017.7
2019-01-04T07:57:14.930Z,1017.7
2019-01-04T08:00:15.756Z,1017.8
2019-01-04T08:03:15.541Z,1017.8
2019-01-04T08:06:15.412Z,1017.8
2019-01-04T08:09:15.063Z,1017.8
2019-01-04T08:12:15.850Z,1017.8
2019-01-04T08:15:15.615Z,1017.9
2019-01-04T08:18:15.942Z,1017.8
2019-01-04T08:21:15.936Z,1017.9
2019-01-04T08:24:15.943Z,1017.9
2019-01-04T08:27:15.617Z,1017.9
2019-01-04T08:30:15.482Z,1017.9
2019-01-04T08:33:15.300Z,1018.0
2019-01-04T08:36:15.247Z,1018.0
2019-01-04T08:39:16.091Z,1017.9
2019-01-04T08:42:14.951Z,1017.9
2019-01-04T08:45:15.644Z,1017.8
2019-01-04T08:48:15.556Z,1017.8
2019-01-04T08:51:15.307Z,1017.8
2019-01-04T08:54:15.021Z,1017.9
2019-01-04T08:57:15.925Z,1017.9
2019-01-04T09:00:15.620Z,1017.9
2019-01-04T09:03:15.653Z,1017.8
2019-01-04T09:06:15.372Z,1017.9
2019-01-04T09:09:15.342Z,1017.8
2019-01-04T09:12:15.223Z,1017.9
2019-01-04T09:15:15.235Z,1017.9
2019-01-04T09:18:15.273Z,1017.9
2019-01-04T09:21:15.110Z,1017.8
2019-01-04T09:24:15.906Z,1017.8
2019-01-04T09:27:15.730Z,1017.8
2019-01-04T09:30:15.815Z,1017.7
2019-01-04T09:33:15.580Z,1017.7
2019-01-04T09:36:15.411Z,1017.6
2019-01-04T09:39:15.463Z,1017.5
2019-01-04T09:42:15.808Z,1017.5
2019-01-04T09:45:15.756Z,1017.6
2019-01-04T09:48:15.545Z,1017.5
2019-01-04T09:51:15.432Z,1017.4
2019-01-04T09:54:15.276Z,1017.4
2019-01-04T09:57:15.234Z,1017.3
2019-01-04T10:00:15.110Z,1017.3
2019-01-04T10:03:16.012Z,1017.2
2019-01-04T10:06:15.753Z,1017.2
2019-01-04T10:09:15.489Z,1017.2
2019-01-04T10:12:15.787Z,1017.1
2019-01-04T10:15:15.921Z,1017.1
2019-01-04T10:18:15.607Z,1017.0
2019-01-04T10:21:15.486Z,1017.0
2019-01-04T10:24:15.550Z,1016.9
2019-01-04T10:27:15.238Z,1016.8
2019-01-04T10:30:15.268Z,1016.7
2019-01-04T10:33:15.137Z,1016.7
2019-01-04T10:36:15.060Z,1016.7
2019-01-04T10:39:14.979Z,1016.7
2019-01-04T10:42:15.658Z,1016.7
2019-01-04T10:45:15.533Z,1016.7
2019-01-04T10:48:15.475Z,1016.7
2019-01-04T10:51:15.505Z,1016.7
2019-01-04T10:54:15.551Z,1016.7
2019-01-04T10:57:15.499Z,1016.6
2019-01-04T11:00:15.520Z,1016.5
2019-01-04T11:03:15.342Z,1016.4
2019-01-04T11:06:15.238Z,1016.4
2019-01-04T11:09:15.146Z,1016.3
2019-01-04T11:12:15.999Z,1016.4
2019-01-04T11:15:14.924Z,1016.4
2019-01-04T11:18:15.985Z,1016.2
2019-01-04T11:21:15.843Z,1016.3
2019-01-04T11:24:15.743Z,1016.2
2019-01-04T11:27:15.502Z,1016.1
2019-01-04T11:30:15.373Z,1016.0
2019-01-04T11:33:15.482Z,1016.1
2019-01-04T11:36:15.197Z,1016.1
2019-01-04T11:39:15.734Z,1016.1
2019-01-04T11:42:15.443Z,1016.0
2019-01-04T11:45:15.051Z,1015.9
2019-01-04T11:48:15.781Z,1015.9
2019-01-04T11:51:15.820Z,1015.9
2019-01-04T11:54:16.011Z,1015.9
2019-01-04T11:57:15.696Z,1015.8
2019-01-04T12:00:15.622Z,1015.8
2019-01-04T12:03:15.481Z,1015.8
2019-01-04T12:06:15.233Z,1015.7
2019-01-04T12:09:15.201Z,1015.6
2019-01-04T12:12:15.229Z,1015.7
2019-01-04T12:18:15.082Z,1015.6
2019-01-04T12:21:15.180Z,1015.4
2019-01-04T12:24:15.089Z,1015.4
2019-01-04T12:27:14.993Z,1015.5
2019-01-04T12:30:15.978Z,1015.3
2019-01-04T12:33:15.652Z,1015.4
2019-01-04T12:36:15.468Z,1015.4
2019-01-04T12:39:15.278Z,1015.5
2019-01-04T12:42:15.252Z,1015.4
2019-01-04T12:45:15.168Z,1015.3
2019-01-04T12:48:16.017Z,1015.3
2019-01-04T12:51:15.910Z,1015.4
2019-01-04T12:54:15.616Z,1015.3
2019-01-04T12:57:15.460Z,1015.4
2019-01-04T13:00:15.416Z,1015.6
2019-01-04T13:03:15.444Z,1015.5
2019-01-04T13:06:15.356Z,1015.5
2019-01-04T13:09:15.296Z,1015.5
2019-01-04T13:12:15.398Z,1015.6
2019-01-04T13:15:15.270Z,1015.4
2019-01-04T13:18:15.142Z,1015.3
2019-01-04T13:21:15.905Z,1015.3
2019-01-04T13:24:15.009Z,1015.3
2019-01-04T13:27:15.862Z,1015.2
2019-01-04T13:30:20.637Z,1015.1
2019-01-04T13:33:15.578Z,1015.0
2019-01-04T13:36:15.423Z,1014.9
2019-01-04T13:39:15.196Z,1015.0
2019-01-04T13:42:15.132Z,1014.9
2019-01-04T13:45:14.959Z,1014.9
2019-01-04T13:48:15.825Z,1014.8
2019-01-04T13:51:15.891Z,1014.7
2019-01-04T13:54:15.807Z,1014.7
2019-01-04T13:57:15.505Z,1014.7
2019-01-04T14:00:15.515Z,1014.7
2019-01-04T14:03:15.305Z,1014.7
2019-01-04T14:06:15.175Z,1014.7
2019-01-04T14:09:15.794Z,1014.6
2019-01-04T14:12:15.657Z,1014.5
2019-01-04T14:15:15.356Z,1014.3
2019-01-04T14:18:15.327Z,1014.4
2019-01-04T14:21:15.179Z,1014.3
2019-01-04T14:24:15.141Z,1014.2
2019-01-04T14:27:15.035Z,1014.1
2019-01-04T14:30:15.753Z,1014.2
2019-01-04T14:33:16.034Z,1014.1
2019-01-04T14:36:15.144Z,1014.1
2019-01-04T14:39:15.176Z,1013.9
2019-01-04T14:42:15.883Z,1013.8
2019-01-04T14:45:15.980Z,1013.7
2019-01-04T14:48:15.777Z,1013.8
2019-01-04T14:51:15.648Z,1013.6
2019-01-04T14:54:15.606Z,1013.7
2019-01-04T14:57:15.527Z,1013.7
2019-01-04T15:00:15.461Z,1013.7
2019-01-04T15:03:15.312Z,1013.8
2019-01-04T15:06:15.113Z,1013.9
2019-01-04T15:09:15.920Z,1013.9
2019-01-04T15:12:16.914Z,1013.8
2019-01-04T15:15:15.953Z,1013.8
2019-01-04T15:18:15.034Z,1013.6
2019-01-04T15:21:15.851Z,1013.5
2019-01-04T15:24:15.903Z,1013.4
2019-01-04T15:27:14.906Z,1013.6
2019-01-04T15:30:20.782Z,1013.7
2019-01-04T15:33:15.833Z,1013.6
2019-01-04T15:36:15.713Z,1013.6
2019-01-04T15:39:15.693Z,1013.7
2019-01-04T15:42:15.428Z,1013.7
2019-01-04T15:45:15.288Z,1013.8
2019-01-04T15:48:15.358Z,1013.8
2019-01-04T15:51:15.381Z,1013.8
2019-01-04T15:54:15.399Z,1013.8
2019-01-04T15:57:15.146Z,1013.9
2019-01-04T16:00:15.249Z,1014.0
2019-01-04T16:03:15.118Z,1014.0
2019-01-04T16:06:15.939Z,1014.0
2019-01-04T16:09:15.791Z,1014.1
2019-01-04T16:12:15.780Z,1014.1
2019-01-04T16:15:15.637Z,1014.2
2019-01-04T16:18:15.458Z,1014.2
2019-01-04T16:21:15.241Z,1014.3
2019-01-04T16:24:15.291Z,1014.1
2019-01-04T16:27:15.276Z,1014.3
2019-01-04T16:30:15.272Z,1014.4
2019-01-04T16:33:15.420Z,1014.4
2019-01-04T16:36:15.646Z,1014.4
2019-01-04T16:39:15.903Z,1014.4
2019-01-04T16:42:15.914Z,1014.3
2019-01-04T16:45:15.230Z,1014.2
2019-01-04T16:48:15.273Z,1014.3
2019-01-04T16:51:15.214Z,1014.3
2019-01-04T16:54:14.941Z,1014.3
2019-01-04T16:57:15.891Z,1014.2
2019-01-04T17:00:15.923Z,1014.1
2019-01-04T17:03:15.585Z,1014.1
2019-01-04T17:06:15.780Z,1014.0
2019-01-04T17:09:15.533Z,1013.9
2019-01-04T17:12:15.360Z,1013.8
2019-01-04T17:15:15.224Z,1013.8
2019-01-04T17:18:15.145Z,1013.8
2019-01-04T17:21:15.939Z,1013.8
2019-01-04T17:24:15.774Z,1013.9
2019-01-04T17:27:15.602Z,1013.9
2019-01-04T17:30:15.306Z,1013.9
2019-01-04T17:33:15.501Z,1013.9
2019-01-04T17:36:15.124Z,1013.8
2019-01-04T17:39:15.898Z,1013.9
2019-01-04T17:42:15.654Z,1013.7
2019-01-04T17:45:15.609Z,1013.7
2019-01-04T17:48:15.585Z,1013.8
2019-01-04T17:51:16.037Z,1013.7
2019-01-04T17:54:15.753Z,1013.6
2019-01-04T17:57:15.934Z,1013.7
2019-01-04T18:00:15.094Z,1013.7
2019-01-04T18:03:15.873Z,1013.8
2019-01-04T18:06:15.910Z,1013.8
2019-01-04T18:09:15.925Z,1013.8
2019-01-04T18:12:15.898Z,1013.9
2019-01-04T18:15:15.660Z,1013.8
2019-01-04T18:18:16.158Z,1013.8
2019-01-04T18:21:15.291Z,1013.8
2019-01-04T18:24:15.125Z,1013.9
2019-01-04T18:27:15.971Z,1013.9
2019-01-04T18:30:15.779Z,1014.0
2019-01-04T18:33:15.609Z,1013.9
2019-01-04T18:36:15.998Z,1013.9
2019-01-04T18:39:15.752Z,1013.9
2019-01-04T18:42:15.314Z,1013.9
2019-01-04T18:45:15.564Z,1013.8
2019-01-04T18:48:15.831Z,1013.6
2019-01-04T18:51:15.757Z,1013.7
2019-01-04T18:54:15.613Z,1013.6
2019-01-04T18:57:15.472Z,1013.5
2019-01-04T19:00:22.553Z,1013.4
2019-01-04T19:03:15.480Z,1013.3
2019-01-04T19:06:15.608Z,1013.3
2019-01-04T19:09:15.872Z,1013.2
2019-01-04T19:12:16.022Z,1013.4
2019-01-04T19:15:15.091Z,1013.4
2019-01-04T19:18:15.440Z,1013.5
2019-01-04T19:21:15.443Z,1013.5
2019-01-04T19:24:15.363Z,1013.5
2019-01-04T19:27:15.796Z,1013.5
2019-01-04T19:30:15.160Z,1013.4
2019-01-04T19:33:15.468Z,1013.4
2019-01-04T19:36:15.801Z,1013.4
2019-01-04T19:39:15.967Z,1013.3
2019-01-04T19:42:15.225Z,1013.4
2019-01-04T19:45:15.516Z,1013.5
2019-01-04T19:48:15.805Z,1013.6
2019-01-04T19:51:15.909Z,1013.6
2019-01-04T19:54:15.023Z,1013.5
2019-01-04T19:57:15.015Z,1013.5
2019-01-04T20:00:15.117Z,1013.5
2019-01-04T20:03:15.418Z,1013.5
2019-01-04T20:06:15.324Z,1013.5
2019-01-04T20:09:15.787Z,1013.4
2019-01-04T20:12:15.864Z,1013.4
2019-01-04T20:15:15.272Z,1013.5
2019-01-04T20:18:15.250Z,1013.6
2019-01-04T20:21:30.076Z,1013.7
2019-01-04T20:24:15.611Z,1013.5
2019-01-04T20:27:18.167Z,1013.6
2019-01-04T20:30:15.929Z,1013.5
2019-01-04T20:33:14.453Z,1013.5
2019-01-04T20:36:15.682Z,1013.5
2019-01-04T20:39:15.732Z,1013.5
2019-01-04T20:42:15.043Z,1013.6
2019-01-04T20:45:15.057Z,1013.7
2019-01-04T20:48:15.654Z,1013.7
2019-01-04T20:51:15.825Z,1013.6
2019-01-04T20:54:15.581Z,1013.6
2019-01-04T20:57:15.206Z,1013.6
2019-01-04T21:00:15.338Z,1013.7
2019-01-04T21:03:15.319Z,1013.7
2019-01-04T21:06:15.653Z,1013.7
2019-01-04T21:09:15.780Z,1013.6
2019-01-04T21:12:15.180Z,1013.6
2019-01-04T21:15:15.914Z,1013.6
2019-01-04T21:18:15.621Z,1013.6
2019-01-04T21:21:15.814Z,1013.5
2019-01-04T21:24:15.688Z,1013.6
2019-01-04T21:27:15.381Z,1013.6
2019-01-04T21:30:15.640Z,1013.5
2019-01-04T21:33:15.279Z,1013.5
2019-01-04T21:36:15.194Z,1013.5
2019-01-04T21:39:15.564Z,1013.5
2019-01-04T21:42:15.851Z,1013.5
2019-01-04T21:45:15.095Z,1013.4
2019-01-04T21:48:14.971Z,1013.4
2019-01-04T21:51:15.173Z,1013.5
2019-01-04T21:54:15.462Z,1013.5
2019-01-04T21:57:15.612Z,1013.4
2019-01-04T22:00:15.354Z,1013.4
2019-01-04T22:03:15.036Z,1013.5
2019-01-04T22:06:15.419Z,1013.4
2019-01-04T22:09:15.594Z,1013.5
2019-01-04T22:12:15.825Z,1013.5
2019-01-04T22:15:15.038Z,1013.3
2019-01-04T22:18:15.950Z,1013.3
2019-01-04T22:21:16.006Z,1013.3
2019-01-04T22:24:15.446Z,1013.2
2019-01-04T22:27:15.028Z,1013.3
2019-01-04T22:30:15.417Z,1013.2
2019-01-04T22:33:15.234Z,1013.2
2019-01-04T22:36:15.190Z,1013.2
2019-01-04T22:39:15.543Z,1013.2
2019-01-04T22:42:15.763Z,1013.1
2019-01-04T22:45:15.885Z,1013.1
2019-01-04T22:48:15.314Z,1013.0
2019-01-04T22:51:15.556Z,1013.0
2019-01-04T22:54:15.470Z,1012.9
2019-01-04T22:57:15.306Z,1012.8
2019-01-04T23:00:15.891Z,1012.9
2019-01-04T23:03:15.603Z,1012.9
2019-01-04T23:06:16.007Z,1012.9
2019-01-04T23:09:15.912Z,1012.9
2019-01-04T23:12:15.875Z,1012.9
2019-01-04T23:15:19.918Z,1012.9
2019-01-04T23:18:15.345Z,1012.9
2019-01-04T23:21:15.505Z,1012.9
2019-01-04T23:24:15.247Z,1012.9
2019-01-04T23:27:15.612Z,1012.8
2019-01-04T23:30:15.145Z,1012.8
2019-01-04T23:33:15.073Z,1012.8
2019-01-04T23:36:15.791Z,1012.8
2019-01-04T23:39:15.881Z,1012.8
2019-01-04T23:42:15.201Z,1012.8
2019-01-04T23:45:15.534Z,1012.8
2019-01-04T23:48:15.363Z,1012.7
2019-01-04T23:51:15.167Z,1012.7
2019-01-04T23:54:15.796Z,1012.6
2019-01-04T23:57:15.347Z,1012.7
